Terminal Aerodrome Forecast
Issued by NWS Blacksburg, VA

Current Version | Previous Version | Graphics & Text | Print | Product List | Glossary On
Versions: 1 2 3 4 5 6 7 8 9 10 11 12 13 14 15 16 17 18 19 20 21 22 23 24 25 26 27 28 29 30 31 32 33 34 35 36 37 38 39
000
FTUS41 KRNK 252340
TAFBLF
TAF
KBLF 252340Z 2600/2624 00000KT P6SM OVC120
     FM260300 12003KT 3SM -SN OVC012
     FM260500 12003KT 1SM -SN BR OVC005
     FM261000 10004KT 4SM -SN BR OVC011
     FM261300 12005KT P6SM -SN OVC015
     FM261700 26005KT P6SM -SHSN OVC025=

USA.gov is the U.S. government's official web portal to all federal, state and local government web resources and services.